Adams, WI

8:36 AM CDT on August 18, 2019 (GMT -0500)
Adams WI South Walker Street | | Change Station

Elev 971 ft 43.95 °N, 89.81 °W | Updated 47 seconds ago

Partly Cloudy
Partly Cloudy
67.8 °F
Feels Like 67.8 °F
N
4.3
Wind Variable Wind from ENE
Gusts 15.7 mph

Today
High -- | Low -- °F
--% Chance of Precip.
Yesterday
High -- | Low -- °F
Precip. -- in
Pressure 29.66 in
Visibility 10.0 miles
Clouds Few 1000 ft
Scattered Clouds 12000 ft
Mostly Cloudy 20000 ft
Dew Point 58 °F
Humidity 70%
Rainfall 0.05 in
Snow Depth Not available.
6:06 AM 7:59 PM
Waning Gibbous, 92% visible
METAR KVOK 181256Z COR 19021G27KT 10SM FEW010 SCT120 BKN200 20/20 A2966 RMK AO2A PK WND 18030/52 PRESRR SLP043 70002 COR 1305
Pressure 29.66 in
Visibility 10.0 miles
Clouds Few 1000 ft
Scattered Clouds 12000 ft
Mostly Cloudy 20000 ft
Dew Point 58 °F
Humidity 70%
Rainfall 0.05 in
Snow Depth Not available.
6:06 AM 7:59 PM
Waning Gibbous, 92% visible
METAR KVOK 181256Z COR 19021G27KT 10SM FEW010 SCT120 BKN200 20/20 A2966 RMK AO2A PK WND 18030/52 PRESRR SLP043 70002 COR 1305

Get Severe Weather Alerts

Thanks for signing up!

Be on the lookout for a verification email in your inbox.

You'll start receiving the daily forecast at 6 AM.

×

10-Day Weather Forecast

Almanac

Astronomy

Aug. 18, 2019 Rise Set
Actual Time
Civil Twilight
Nautical Twilight
Astronomical Twilight
Moon
Length of Visible Light
Length of Day
Tomorrow will be .
, % of the Moon is Illuminated

Today's Extremes

State Highs State Lows

Community

WunderPhotos

Category 6

Welcome to Category 6. This is the collective home for Weather Underground's featured writeups by Dr. Jeff Masters (right), Bob Henson (left), Chris Burt, and other regular contributors.

Nearby

Air Quality

  Air Quality AQ Index Pollutant
Not available.

Snow Depth

Station Depth Elevation

Earthquake Activity

City Distance Mag. Time & Date
Minimum magnitude displayed is 2.5.

Coastal Water Temperatures

Place Temperature

Stations

Nearby Weather Stations

Station Location Temp. Windchill Dew Point Humidity Wind Precip. Elev Updated Type
                   

Watches & Warnings

There are currently no watches in effect.